createdAt,value
2018-01-10T00:06:07.861Z,11.18
2018-01-10T00:06:48.362Z,11.35
2018-01-10T00:07:28.952Z,11.28
2018-01-10T00:08:09.468Z,11.33
2018-01-10T00:08:50.074Z,11.33
2018-01-10T00:09:30.603Z,11.39
2018-01-10T00:10:11.163Z,11.32
2018-01-10T00:10:51.695Z,11.35
2018-01-10T00:11:32.284Z,11.35
2018-01-10T00:12:12.786Z,11.25
2018-01-10T00:13:57.169Z,11.35
2018-01-10T00:14:37.764Z,11.33
2018-01-10T00:15:18.257Z,11.27
2018-01-10T00:15:58.729Z,11.33
2018-01-10T00:16:39.419Z,11.32
2018-01-10T00:17:19.997Z,11.32
2018-01-10T00:18:00.660Z,11.29
2018-01-10T00:18:41.184Z,11.35
2018-01-10T00:19:21.824Z,11.27
2018-01-10T00:20:02.374Z,11.17
2018-01-10T00:20:42.945Z,11.17
2018-01-10T00:21:23.474Z,11.21
2018-01-10T00:22:03.977Z,11.18
2018-01-10T00:22:44.520Z,11.19
2018-01-10T00:23:25.123Z,11.29
2018-01-10T00:24:05.592Z,11.33
2018-01-10T00:24:46.201Z,11.32
2018-01-10T00:25:27.032Z,11.35
2018-01-10T00:26:07.523Z,11.33
2018-01-10T00:26:48.057Z,11.35
2018-01-10T00:27:29.423Z,11.4
2018-01-10T00:28:09.938Z,11.28
2018-01-10T00:28:50.483Z,11.39
2018-01-10T00:29:31.023Z,11.4
2018-01-10T00:30:11.606Z,11.51
2018-01-10T00:30:52.123Z,11.4
2018-01-10T00:31:32.839Z,11.42
2018-01-10T00:32:13.613Z,11.42
2018-01-10T00:32:54.151Z,11.44
2018-01-10T00:33:34.651Z,11.37
2018-01-10T00:34:15.213Z,11.39
2018-01-10T00:34:55.712Z,11.4
2018-01-10T00:35:36.848Z,11.37
2018-01-10T00:36:17.458Z,11.35
2018-01-10T00:36:57.972Z,11.32
2018-01-10T00:37:38.435Z,11.32
2018-01-10T00:38:19.111Z,11.18
2018-01-10T00:38:59.542Z,11.25
2018-01-10T00:39:40.120Z,11.07
2018-01-10T00:40:20.690Z,11.14
2018-01-10T00:41:01.189Z,11.1
2018-01-10T00:41:41.811Z,11.1
2018-01-10T00:42:22.414Z,11.07
2018-01-10T00:43:02.924Z,11.21
2018-01-10T00:43:43.469Z,11.18
2018-01-10T00:44:24.060Z,11.11
2018-01-10T00:45:04.581Z,11.19
2018-01-10T00:45:45.110Z,11.15
2018-01-10T00:46:25.672Z,11.22
2018-01-10T00:47:09.156Z,11.18
2018-01-10T00:48:13.878Z,11.1
2018-01-10T00:48:56.690Z,11.24
2018-01-10T00:49:58.790Z,11.22
2018-01-10T00:50:46.065Z,11.19
2018-01-10T00:51:28.776Z,11.19
2018-01-10T00:52:16.568Z,11.22
2018-01-10T00:53:06.205Z,11.24
2018-01-10T00:55:00.716Z,11.33
2018-01-10T00:55:53.064Z,11.29
2018-01-10T00:56:46.573Z,11.33
2018-01-10T00:57:38.601Z,11.42
2018-01-10T00:58:28.374Z,11.36
2018-01-10T00:59:23.084Z,11.37
2018-01-10T01:00:15.039Z,11.33
2018-01-10T01:01:03.540Z,11.28
2018-01-10T01:01:55.045Z,11.27
2018-01-10T01:04:01.507Z,11.37
2018-01-10T01:04:46.237Z,11.36
2018-01-10T01:06:06.596Z,11.39
2018-01-10T01:06:58.420Z,11.47
2018-01-10T01:07:51.512Z,11.51
2018-01-10T01:08:42.966Z,11.52
2018-01-10T01:09:32.923Z,11.51
2018-01-10T01:11:34.331Z,11.44
2018-01-10T01:13:13.236Z,11.55
2018-01-10T01:15:19.126Z,11.51
2018-01-10T01:16:07.972Z,11.46
2018-01-10T01:17:00.074Z,11.46
2018-01-10T01:17:37.472Z,11.55
2018-01-10T01:18:18.037Z,11.6
2018-01-10T01:18:59.168Z,11.64
2018-01-10T01:19:39.166Z,11.65
2018-01-10T01:20:19.691Z,11.67
2018-01-10T01:21:00.254Z,11.65
2018-01-10T01:21:40.832Z,11.65
2018-01-10T01:22:21.468Z,11.55
2018-01-10T01:36:40.506Z,11.78
2018-01-10T01:37:32.117Z,11.65
2018-01-10T01:39:12.488Z,11.6
2018-01-10T01:40:47.703Z,11.54
2018-01-10T01:41:39.948Z,11.52
2018-01-10T01:43:39.061Z,11.58
2018-01-10T01:45:17.861Z,11.49
2018-01-10T01:47:23.848Z,11.73
2018-01-10T01:48:12.295Z,11.64
2018-01-10T01:50:59.638Z,11.64
2018-01-10T01:53:25.357Z,11.72
2018-01-10T01:54:17.111Z,11.65
2018-01-10T01:58:49.990Z,11.57
2018-01-10T01:59:43.576Z,11.51
2018-01-10T02:00:31.961Z,11.52
2018-01-10T02:01:23.612Z,11.46
2018-01-10T02:10:07.682Z,11.51
2018-01-10T02:10:59.794Z,11.47
2018-01-10T02:12:05.844Z,11.4
2018-01-10T02:14:06.675Z,11.52
2018-01-10T02:16:40.591Z,11.54
2018-01-10T02:19:03.146Z,11.62
2018-01-10T02:19:57.599Z,11.52
2018-01-10T02:22:25.220Z,11.44
2018-01-10T02:24:11.038Z,11.43
2018-01-10T02:25:48.342Z,11.51
2018-01-10T02:27:49.526Z,11.49
2018-01-10T02:29:24.438Z,11.37
2018-01-10T02:31:22.416Z,11.42
2018-01-10T02:32:15.848Z,11.35
2018-01-10T02:33:06.295Z,11.46
2018-01-10T02:33:59.199Z,11.37
2018-01-10T02:34:46.224Z,11.36
2018-01-10T02:38:55.304Z,11.52
2018-01-10T02:40:34.728Z,11.55
2018-01-10T02:42:34.933Z,11.44
2018-01-10T02:48:54.352Z,11.65
2018-01-10T02:51:18.871Z,11.47
2018-01-10T02:52:13.261Z,11.52
2018-01-10T02:53:49.654Z,11.65
2018-01-10T02:54:40.271Z,11.6
2018-01-10T02:55:33.212Z,11.51
2018-01-10T03:00:56.639Z,11.54
2018-01-10T03:04:11.193Z,11.51
2018-01-10T03:05:01.141Z,11.47
2018-01-10T03:05:53.998Z,11.47
2018-01-10T03:07:53.931Z,11.42
2018-01-10T03:09:56.388Z,11.57
2018-01-10T03:11:30.794Z,11.57
2018-01-10T03:13:37.149Z,11.46
2018-01-10T03:14:28.563Z,11.35
2018-01-10T03:18:36.316Z,11.39
2018-01-10T03:22:00.196Z,11.4
2018-01-10T03:25:48.718Z,11.35
2018-01-10T03:27:55.195Z,11.32
2018-01-10T03:29:12.602Z,11.27
2018-01-10T03:31:49.463Z,11.35
2018-01-10T03:32:37.766Z,11.25
2018-01-10T03:36:51.164Z,11.35
2018-01-10T03:38:57.897Z,11.52
2018-01-10T03:41:01.245Z,11.54
2018-01-10T03:43:25.913Z,11.37
2018-01-10T03:47:03.954Z,11.51
2018-01-10T03:47:49.849Z,11.42
2018-01-10T03:49:31.094Z,11.54
2018-01-10T03:50:25.871Z,11.44
2018-01-10T03:52:03.777Z,11.6
2018-01-10T03:56:05.656Z,11.39
2018-01-10T03:56:56.269Z,11.35
2018-01-10T03:57:38.292Z,11.29
2018-01-10T03:58:18.929Z,11.33
2018-01-10T03:58:59.439Z,11.35
2018-01-10T03:59:40.142Z,11.25
2018-01-10T04:00:20.662Z,11.4
2018-01-10T04:01:01.645Z,11.28
2018-01-10T04:01:45.600Z,11.28
2018-01-10T04:03:43.609Z,11.43
2018-01-10T05:14:26.878Z,11.49
2018-01-10T05:17:22.763Z,11.57
2018-01-10T05:19:09.026Z,11.4
2018-01-10T06:02:12.978Z,11.42
2018-01-10T06:24:24.243Z,11.46
2018-01-10T06:28:16.979Z,11.52
2018-01-10T06:29:09.312Z,11.55
2018-01-10T06:30:11.288Z,11.47
2018-01-10T06:31:53.828Z,11.57
2018-01-10T06:46:55.495Z,11.54
2018-01-10T06:47:47.914Z,11.51
2018-01-10T06:52:40.861Z,11.49
2018-01-10T06:56:25.589Z,11.51
2018-01-10T07:00:17.985Z,11.6
2018-01-10T07:05:19.194Z,11.61
2018-01-10T07:13:22.155Z,11.85
2018-01-10T07:14:06.934Z,11.88
2018-01-10T07:14:47.150Z,11.91
2018-01-10T07:48:38.138Z,11.75
2018-01-10T07:49:36.244Z,11.7
2018-01-10T07:59:04.122Z,11.9
2018-01-10T07:59:46.664Z,11.94
2018-01-10T08:00:27.117Z,11.96
2018-01-10T08:15:53.993Z,12.28
2018-01-10T08:19:19.500Z,12.39
2018-01-10T08:28:07.940Z,12.46
2018-01-10T08:28:56.414Z,12.39
2018-01-10T08:29:45.963Z,12.39
2018-01-10T08:30:35.247Z,12.45
2018-01-10T08:31:24.341Z,12.38
2018-01-10T08:37:26.024Z,12.67
2018-01-10T08:39:58.862Z,12.64
2018-01-10T08:47:14.618Z,12.78
2018-01-10T08:51:05.621Z,13
2018-01-10T08:52:02.763Z,12.96
2018-01-10T08:54:01.505Z,12.95
2018-01-10T08:56:24.482Z,13.01
2018-01-10T08:58:13.039Z,12.97
2018-01-10T08:59:01.953Z,13.07
2018-01-10T08:59:50.623Z,13.05
2018-01-10T09:05:35.451Z,13.2
2018-01-10T09:06:24.624Z,13.28
2018-01-10T09:07:14.717Z,13.33
2018-01-10T09:12:06.305Z,13.49
2018-01-10T09:20:40.073Z,13.6
2018-01-10T09:21:29.520Z,13.57
2018-01-10T09:22:19.464Z,13.59
2018-01-10T09:23:07.083Z,13.63
2018-01-10T09:23:56.371Z,13.63
2018-01-10T09:26:00.870Z,13.7
2018-01-10T09:26:49.790Z,13.66
2018-01-10T09:27:39.292Z,13.63
2018-01-10T09:28:27.346Z,13.66
2018-01-10T09:29:19.788Z,13.71
2018-01-10T09:30:07.905Z,13.69
2018-01-10T09:30:57.817Z,13.69
2018-01-10T09:31:51.325Z,13.71
2018-01-10T09:33:28.392Z,13.63
2018-01-10T09:35:23.405Z,13.69
2018-01-10T09:37:00.277Z,13.64
2018-01-10T09:37:48.690Z,13.75
2018-01-10T09:40:52.043Z,13.81
2018-01-10T09:42:29.561Z,13.84
2018-01-10T09:44:38.833Z,13.87
2018-01-10T09:46:15.155Z,13.87
2018-01-10T09:48:06.849Z,14
2018-01-10T09:48:55.420Z,13.96
2018-01-10T09:49:43.672Z,13.84
2018-01-10T09:50:32.658Z,14.03
2018-01-10T09:51:21.434Z,14
2018-01-10T09:52:11.477Z,14.04
2018-01-10T09:55:01.837Z,13.99
2018-01-10T09:56:41.706Z,14.04
2018-01-10T09:58:22.512Z,14.06
2018-01-10T10:02:39.683Z,14.03
2018-01-10T10:03:27.390Z,14
2018-01-10T10:07:15.990Z,13.97
2018-01-10T10:08:09.216Z,13.92
2018-01-10T10:08:57.585Z,14
2018-01-10T10:10:56.623Z,14
2018-01-10T10:14:43.624Z,14.04
2018-01-10T10:15:40.921Z,14
2018-01-10T10:19:38.497Z,13.95
2018-01-10T10:21:39.976Z,14.1
2018-01-10T10:23:14.978Z,14.04
2018-01-10T10:24:53.473Z,14.09
2018-01-10T10:25:42.885Z,14.04
2018-01-10T10:29:12.866Z,14.04
2018-01-10T10:30:04.429Z,14.04
2018-01-10T10:32:03.437Z,14.03
2018-01-10T10:32:52.457Z,14.07
2018-01-10T10:33:41.859Z,14.09
2018-01-10T10:35:39.127Z,14.18
2018-01-10T10:36:28.553Z,14.15
2018-01-10T10:37:18.336Z,14.07
2018-01-10T10:38:08.035Z,14.12
2018-01-10T10:38:58.174Z,13.96
2018-01-10T10:39:47.829Z,14.04
2018-01-10T10:44:57.328Z,14.04
2018-01-10T10:45:50.178Z,13.97
2018-01-10T10:51:21.151Z,14.15
2018-01-10T10:54:41.545Z,14.15
2018-01-10T10:55:36.544Z,14.15
2018-01-10T10:57:13.557Z,14.12
2018-01-10T10:59:36.525Z,14.15
2018-01-10T11:00:24.313Z,14.17
2018-01-10T11:01:14.465Z,14.22
2018-01-10T11:02:03.384Z,14.32
2018-01-10T11:02:52.722Z,14.39
2018-01-10T11:04:45.228Z,14.33
2018-01-10T11:06:47.808Z,14.27
2018-01-10T11:08:50.990Z,14.17
2018-01-10T11:10:53.191Z,14.18
2018-01-10T11:12:31.626Z,14.18
2018-01-10T11:14:09.266Z,14.06
2018-01-10T11:17:59.515Z,14.06
2018-01-10T11:20:02.421Z,14.18
2018-01-10T11:20:50.589Z,14.07
2018-01-10T11:26:02.482Z,13.97
2018-01-10T11:28:07.570Z,14.07
2018-01-10T11:29:06.685Z,14.04
2018-01-10T11:30:48.073Z,14.04
2018-01-10T11:32:27.746Z,14.04
2018-01-10T11:34:08.965Z,14.04
2018-01-10T11:35:05.875Z,13.97
2018-01-10T11:35:57.155Z,14.02
2018-01-10T11:38:50.221Z,13.97
2018-01-10T11:39:40.259Z,14
2018-01-10T11:41:29.142Z,13.96
2018-01-10T11:42:17.757Z,14.12
2018-01-10T11:43:06.008Z,14.1
2018-01-10T11:43:59.323Z,14.04
2018-01-10T11:45:10.682Z,13.97
2018-01-10T11:49:53.824Z,14.1
2018-01-10T11:53:30.470Z,13.99
2018-01-10T11:56:28.138Z,14.03
2018-01-10T12:00:12.643Z,13.87
2018-01-10T12:06:03.591Z,13.7
2018-01-10T12:10:15.546Z,13.59
2018-01-10T12:11:54.564Z,13.52
2018-01-10T12:13:51.924Z,13.78
2018-01-10T12:15:58.079Z,14.03
2018-01-10T12:19:27.269Z,14.09
2018-01-10T12:20:19.866Z,14.04
2018-01-10T12:26:59.742Z,13.64
2018-01-10T12:28:52.258Z,13.82
2018-01-10T12:29:41.841Z,13.79
2018-01-10T12:30:31.218Z,13.85
2018-01-10T12:31:25.824Z,13.84
2018-01-10T12:33:04.762Z,13.78
2018-01-10T12:34:12.253Z,13.64
2018-01-10T12:35:04.469Z,13.73
2018-01-10T12:37:02.804Z,13.81
2018-01-10T12:42:50.288Z,13.95
2018-01-10T12:45:41.316Z,14.1
2018-01-10T12:47:43.363Z,14.21
2018-01-10T12:49:17.794Z,14.27
2018-01-10T12:50:06.268Z,14.27
2018-01-10T12:50:55.271Z,14.28
2018-01-10T12:51:44.075Z,14.37
2018-01-10T12:52:33.032Z,14.37
2018-01-10T12:53:21.697Z,14.35
2018-01-10T12:54:12.418Z,14.35
2018-01-10T12:54:59.935Z,14.28
2018-01-10T12:55:48.678Z,14.15
2018-01-10T12:56:37.299Z,14.21
2018-01-10T12:57:27.104Z,14.2
2018-01-10T12:58:14.820Z,14.2
2018-01-10T13:00:26.274Z,14.24
2018-01-10T13:02:04.737Z,14.28
2018-01-10T13:02:55.582Z,14.28
2018-01-10T13:03:41.891Z,14.25
2018-01-10T13:04:34.059Z,14.29
2018-01-10T13:07:57.069Z,14.29
2018-01-10T13:08:43.026Z,14.22
2018-01-10T13:10:42.042Z,14.2
2018-01-10T13:11:30.402Z,14.14
2018-01-10T13:12:27.576Z,14.22
2018-01-10T13:21:15.393Z,14.17
2018-01-10T13:22:04.161Z,14.04
2018-01-10T13:24:56.852Z,14.15
2018-01-10T13:25:46.432Z,14.14
2018-01-10T13:26:35.773Z,14.1
2018-01-10T13:27:30.574Z,13.91
2018-01-10T13:28:12.840Z,13.87
2018-01-10T13:35:00.571Z,13.91
2018-01-10T13:36:38.728Z,13.73
2018-01-10T13:40:45.815Z,13.75
2018-01-10T13:41:43.457Z,13.64
2018-01-10T13:42:35.371Z,13.77
2018-01-10T13:44:36.295Z,13.63
2018-01-10T13:45:26.498Z,13.64
2018-01-10T13:46:20.759Z,13.62
2018-01-10T13:47:57.722Z,13.64
2018-01-10T13:49:37.196Z,13.79
2018-01-10T13:52:18.853Z,13.79
2018-01-10T13:53:08.935Z,13.92
2018-01-10T13:56:34.307Z,13.95
2018-01-10T13:58:14.128Z,13.87
2018-01-10T13:59:06.742Z,13.82
2018-01-10T14:00:45.189Z,13.85
2018-01-10T14:01:33.784Z,13.81
2018-01-10T14:02:22.529Z,13.73
2018-01-10T14:04:21.650Z,13.88
2018-01-10T14:09:53.008Z,13.55
2018-01-10T14:19:27.884Z,13.54
2018-01-10T14:22:24.288Z,13.59
2018-01-10T14:24:00.687Z,13.64
2018-01-10T14:25:43.248Z,13.57
2018-01-10T14:27:26.758Z,13.6
2018-01-10T14:30:25.989Z,13.49
2018-01-10T14:32:28.047Z,13.59
2018-01-10T14:34:25.312Z,13.57
2018-01-10T14:35:12.847Z,13.48
2018-01-10T14:40:22.822Z,13.59
2018-01-10T14:47:35.468Z,13.51
2018-01-10T14:50:11.660Z,13.33
2018-01-10T15:05:09.746Z,13.19
2018-01-10T15:12:46.323Z,13.15
2018-01-10T15:15:42.607Z,13.04
2018-01-10T15:17:53.506Z,13.15
2018-01-10T15:18:49.988Z,13.14
2018-01-10T15:19:39.118Z,13.14
2018-01-10T15:20:46.263Z,13.17
2018-01-10T15:29:15.941Z,13.01
2018-01-10T15:32:03.620Z,13.11
2018-01-10T15:32:45.529Z,13.03
2018-01-10T15:33:26.099Z,12.92
2018-01-10T15:34:06.663Z,12.95
2018-01-10T16:20:07.151Z,12.87
2018-01-10T16:45:11.027Z,12.71
2018-01-10T17:28:12.703Z,12.7
2018-01-10T17:28:53.513Z,12.65
2018-01-10T17:29:34.526Z,12.57
2018-01-10T17:30:15.450Z,12.56
2018-01-10T17:30:55.980Z,12.59
2018-01-10T17:31:36.570Z,12.53
2018-01-10T17:32:17.134Z,12.56
2018-01-10T17:32:57.661Z,12.57
2018-01-10T17:33:38.184Z,12.62
2018-01-10T17:34:18.744Z,12.67
2018-01-10T17:34:59.290Z,12.53
2018-01-10T17:35:39.929Z,12.52
2018-01-10T17:36:20.356Z,12.49
2018-01-10T17:37:00.949Z,12.64
2018-01-10T17:37:41.421Z,12.53
2018-01-10T17:38:22.024Z,12.45
2018-01-10T17:39:02.620Z,12.5
2018-01-10T17:39:43.059Z,12.6
2018-01-10T17:40:23.709Z,12.59
2018-01-10T17:41:04.290Z,12.65
2018-01-10T17:41:44.826Z,12.62
2018-01-10T17:42:25.346Z,12.64
2018-01-10T17:43:05.916Z,12.65
2018-01-10T17:43:46.504Z,12.64
2018-01-10T17:44:27.090Z,12.62
2018-01-10T17:45:07.583Z,12.53
2018-01-10T17:45:48.163Z,12.52
2018-01-10T17:46:28.672Z,12.62
2018-01-10T17:47:09.337Z,12.47
2018-01-10T17:47:49.760Z,12.39
2018-01-10T17:48:30.337Z,12.42
2018-01-10T17:49:10.899Z,12.41
2018-01-10T17:49:51.468Z,12.41
2018-01-10T17:50:31.987Z,12.38
2018-01-10T17:51:12.656Z,12.38
2018-01-10T17:51:53.192Z,12.39
2018-01-10T17:52:33.809Z,12.41
2018-01-10T17:53:14.361Z,12.41
2018-01-10T17:53:54.910Z,12.37
2018-01-10T17:54:35.418Z,12.5
2018-01-10T17:55:15.941Z,12.47
2018-01-10T17:55:56.510Z,12.41
2018-01-10T17:56:37.016Z,12.52
2018-01-10T17:57:17.572Z,12.32
2018-01-10T17:57:58.083Z,12.27
2018-01-10T17:58:38.701Z,12.28
2018-01-10T17:59:19.248Z,12.32
2018-01-10T17:59:59.781Z,12.24
2018-01-10T18:00:40.262Z,12.39
2018-01-10T18:01:20.796Z,12.41
2018-01-10T18:02:01.359Z,12.37
2018-01-10T18:02:42.043Z,12.45
2018-01-10T18:03:22.555Z,12.38
2018-01-10T18:04:03.065Z,12.37
2018-01-10T18:04:43.605Z,12.41
2018-01-10T18:05:24.183Z,12.35
2018-01-10T18:06:04.691Z,12.38
2018-01-10T18:06:45.260Z,12.34
2018-01-10T18:07:25.852Z,12.41
2018-01-10T18:08:06.381Z,12.38
2018-01-10T18:08:46.904Z,12.35
2018-01-10T18:09:27.441Z,12.34
2018-01-10T18:10:08.031Z,12.29
2018-01-10T18:10:48.549Z,12.32
2018-01-10T18:11:29.098Z,12.28
2018-01-10T18:12:09.649Z,12.24
2018-01-10T18:12:50.322Z,12.32
2018-01-10T18:13:30.829Z,12.38
2018-01-10T18:14:11.610Z,12.42
2018-01-10T18:14:53.128Z,12.35
2018-01-10T18:15:34.102Z,12.42
2018-01-10T18:16:14.539Z,12.35
2018-01-10T18:16:55.021Z,12.35
2018-01-10T18:17:35.560Z,12.34
2018-01-10T18:18:16.109Z,12.34
2018-01-10T18:18:56.655Z,12.38
2018-01-10T18:19:37.168Z,12.32
2018-01-10T18:20:17.777Z,12.35
2018-01-10T18:20:58.244Z,12.39
2018-01-10T18:21:38.842Z,12.37
2018-01-10T18:22:19.348Z,12.39
2018-01-10T18:22:59.871Z,12.35
2018-01-10T18:23:40.410Z,12.5
2018-01-10T18:24:20.965Z,12.47
2018-01-10T18:25:01.478Z,12.41
2018-01-10T18:25:42.042Z,12.41
2018-01-10T18:26:22.563Z,12.39
2018-01-10T18:27:03.069Z,12.41
2018-01-10T18:27:43.632Z,12.24
2018-01-10T18:28:24.141Z,12.38
2018-01-10T18:29:04.702Z,12.38
2018-01-10T18:29:45.250Z,12.39
2018-01-10T18:30:25.785Z,12.37
2018-01-10T18:31:06.325Z,12.41
2018-01-10T18:31:46.860Z,12.37
2018-01-10T18:32:27.426Z,12.39
2018-01-10T18:33:08.181Z,12.39
2018-01-10T18:35:21.898Z,12.52
2018-01-10T18:36:02.561Z,12.56
2018-01-10T18:36:43.678Z,12.52
2018-01-10T18:37:24.091Z,12.42
2018-01-10T18:38:04.607Z,12.35
2018-01-10T18:38:45.329Z,12.49
2018-01-10T18:39:25.762Z,12.45
2018-01-10T18:40:06.504Z,12.56
2018-01-10T18:40:47.421Z,12.47
2018-01-10T18:41:27.983Z,12.46
2018-01-10T18:42:08.664Z,12.37
2018-01-10T18:42:49.230Z,12.49
2018-01-10T18:43:29.878Z,12.49
2018-01-10T18:44:10.486Z,12.49
2018-01-10T18:44:51.496Z,12.49
2018-01-10T18:45:32.262Z,12.49
2018-01-10T18:46:12.773Z,12.47
2018-01-10T18:46:53.454Z,12.42
2018-01-10T18:47:34.389Z,12.45
2018-01-10T18:48:15.046Z,12.45
2018-01-10T18:48:55.634Z,12.42
2018-01-10T18:49:36.401Z,12.45
2018-01-10T18:50:16.933Z,12.53
2018-01-10T18:50:57.459Z,12.49
2018-01-10T18:51:37.983Z,12.41
2018-01-10T18:52:18.725Z,12.39
2018-01-10T18:52:59.203Z,12.37
2018-01-10T18:53:39.753Z,12.38
2018-01-10T18:54:20.370Z,12.41
2018-01-10T18:55:00.924Z,12.41
2018-01-10T18:55:41.671Z,12.53
2018-01-10T18:56:22.254Z,12.56
2018-01-10T18:57:02.799Z,12.56
2018-01-10T18:57:43.417Z,12.56
2018-01-10T18:58:23.975Z,12.56
2018-01-10T18:59:04.602Z,12.7
2018-01-10T18:59:45.229Z,12.52
2018-01-10T19:00:25.788Z,12.56
2018-01-10T19:01:06.307Z,12.62
2018-01-10T19:01:46.855Z,12.65
2018-01-10T19:02:27.630Z,12.59
2018-01-10T19:03:08.165Z,12.62
2018-01-10T19:03:48.725Z,12.64
2018-01-10T19:04:29.273Z,12.64
2018-01-10T19:05:09.776Z,12.62
2018-01-10T19:05:50.317Z,12.64
2018-01-10T19:06:30.905Z,12.6
2018-01-10T19:07:11.454Z,12.65
2018-01-10T19:07:52.030Z,12.64
2018-01-10T19:08:32.582Z,12.68
2018-01-10T19:09:13.160Z,12.67
2018-01-10T19:09:53.692Z,12.47
2018-01-10T19:10:34.372Z,12.5
2018-01-10T19:11:14.969Z,12.52
2018-01-10T19:11:55.471Z,12.5
2018-01-10T19:12:36.017Z,12.5
2018-01-10T19:13:16.573Z,12.53
2018-01-10T19:13:57.091Z,12.45
2018-01-10T19:14:37.640Z,12.49
2018-01-10T19:15:18.185Z,12.5
2018-01-10T19:15:58.730Z,12.5
2018-01-10T19:16:39.285Z,12.5
2018-01-10T19:17:19.826Z,12.49
2018-01-10T19:18:00.366Z,12.57
2018-01-10T19:18:40.938Z,12.64
2018-01-10T19:19:21.450Z,12.56
2018-01-10T19:20:02.035Z,12.49
2018-01-10T19:20:42.590Z,12.5
2018-01-10T19:21:23.066Z,12.64
2018-01-10T19:22:03.603Z,12.62
2018-01-10T19:22:44.141Z,12.64
2018-01-10T19:23:24.679Z,12.53
2018-01-10T19:24:05.329Z,12.59
2018-01-10T19:24:45.803Z,12.62
2018-01-10T19:25:26.347Z,12.68
2018-01-10T19:26:06.937Z,12.59
2018-01-10T19:26:47.461Z,12.65
2018-01-10T19:27:28.009Z,12.6
2018-01-10T19:28:08.641Z,12.62
2018-01-10T19:28:49.189Z,12.64
2018-01-10T19:29:29.672Z,12.62
2018-01-10T19:30:10.233Z,12.56
2018-01-10T19:30:50.786Z,12.7
2018-01-10T19:31:31.382Z,12.5
2018-01-10T19:32:11.909Z,12.59
2018-01-10T19:32:52.462Z,12.67
2018-01-10T19:33:33.085Z,12.57
2018-01-10T19:34:13.622Z,12.67
2018-01-10T19:34:54.177Z,12.67
2018-01-10T19:35:34.713Z,12.64
2018-01-10T19:36:15.251Z,12.62
2018-01-10T19:36:55.804Z,12.67
2018-01-10T19:37:36.344Z,12.71
2018-01-10T19:38:16.845Z,12.71
2018-01-10T19:38:57.380Z,12.75
2018-01-10T19:39:37.972Z,12.74
2018-01-10T19:40:18.535Z,12.72
2018-01-10T19:40:59.088Z,12.74
2018-01-10T19:41:39.615Z,12.7
2018-01-10T19:42:20.220Z,12.82
2018-01-10T19:43:00.719Z,12.7
2018-01-10T19:43:41.320Z,12.62
2018-01-10T19:44:21.867Z,12.67
2018-01-10T19:45:02.400Z,12.64
2018-01-10T19:45:42.952Z,12.5
2018-01-10T19:46:23.576Z,12.49
2018-01-10T19:47:04.095Z,12.56
2018-01-10T19:47:44.644Z,12.47
2018-01-10T19:48:25.263Z,12.54
2018-01-10T19:49:05.775Z,12.52
2018-01-10T19:49:46.304Z,12.47
2018-01-10T19:50:26.832Z,12.41
2018-01-10T19:51:07.352Z,12.41
2018-01-10T19:51:47.902Z,12.42
2018-01-10T19:52:28.453Z,12.42
2018-01-10T19:53:08.958Z,12.38
2018-01-10T19:53:49.602Z,12.5
2018-01-10T19:54:30.130Z,12.5
2018-01-10T19:55:10.972Z,12.42
2018-01-10T19:55:51.474Z,12.41
2018-01-10T19:56:32.031Z,12.35
2018-01-10T19:57:12.613Z,12.28
2018-01-10T19:57:53.155Z,12.29
2018-01-10T19:58:33.749Z,12.38
2018-01-10T19:59:14.277Z,12.39
2018-01-10T19:59:54.845Z,12.35
2018-01-10T20:00:35.477Z,12.41
2018-01-10T20:01:16.030Z,12.39
2018-01-10T20:01:56.529Z,12.37
2018-01-10T20:02:37.126Z,12.41
2018-01-10T20:03:17.755Z,12.34
2018-01-10T20:03:58.266Z,12.45
2018-01-10T20:04:38.900Z,12.32
2018-01-10T20:05:19.697Z,12.37
2018-01-10T20:06:00.789Z,12.46
2018-01-10T20:06:41.860Z,12.39
2018-01-10T20:07:22.517Z,12.37
2018-01-10T20:08:03.842Z,12.39
2018-01-10T20:08:44.649Z,12.32
2018-01-10T20:09:25.418Z,12.38
2018-01-10T20:10:07.362Z,12.46
2018-01-10T20:10:48.688Z,12.38
2018-01-10T20:11:30.296Z,12.38
2018-01-10T20:12:13.010Z,12.37
2018-01-10T20:12:54.238Z,12.35
2018-01-10T20:13:35.908Z,12.31
2018-01-10T20:14:17.927Z,12.27
2018-01-10T20:14:59.307Z,12.23
2018-01-10T20:15:40.049Z,12.28
2018-01-10T20:16:20.783Z,12.29
2018-01-10T20:17:01.731Z,12.28
2018-01-10T20:17:43.124Z,12.38
2018-01-10T20:18:24.632Z,12.24
2018-01-10T20:19:06.144Z,12.28
2018-01-10T20:19:48.736Z,12.23
2018-01-10T20:20:31.658Z,12.28
2018-01-10T20:21:14.233Z,12.2
2018-01-10T20:21:55.853Z,12.24
2018-01-10T20:22:36.719Z,12.39
2018-01-10T20:23:17.781Z,12.41
2018-01-10T20:23:58.350Z,12.24
2018-01-10T20:24:38.859Z,12.35
2018-01-10T20:25:19.407Z,12.39
2018-01-10T20:26:00.034Z,12.35
2018-01-10T20:26:40.590Z,12.28
2018-01-10T20:27:21.140Z,12.37
2018-01-10T20:28:01.955Z,12.37
2018-01-10T20:28:42.518Z,12.39
2018-01-10T20:29:23.006Z,12.28
2018-01-10T20:30:03.582Z,12.38
2018-01-10T20:30:44.134Z,12.39
2018-01-10T20:31:24.716Z,12.41
2018-01-10T20:32:05.248Z,12.39
2018-01-10T20:32:45.931Z,12.49
2018-01-10T20:33:26.511Z,12.34
2018-01-10T20:34:07.055Z,12.37
2018-01-10T20:34:47.613Z,12.37
2018-01-10T20:35:28.140Z,12.39
2018-01-10T20:36:08.719Z,12.41
2018-01-10T20:36:49.261Z,12.47
2018-01-10T20:37:29.757Z,12.52
2018-01-10T20:38:10.284Z,12.39
2018-01-10T20:38:50.844Z,12.37
2018-01-10T20:39:31.356Z,12.38
2018-01-10T20:40:11.920Z,12.41
2018-01-10T20:40:52.473Z,12.41
2018-01-10T20:41:33.190Z,12.38
2018-01-10T20:42:13.760Z,12.37
2018-01-10T20:42:54.293Z,12.28
2018-01-10T20:43:34.862Z,12.23
2018-01-10T20:44:15.372Z,12.12
2018-01-10T20:44:56.089Z,12.14
2018-01-10T20:45:36.557Z,12.17
2018-01-10T20:46:17.206Z,12.1
2018-01-10T20:46:57.673Z,12.1
2018-01-10T20:47:38.181Z,12.1
2018-01-10T20:48:18.743Z,12.17
2018-01-10T20:48:59.337Z,12.14
2018-01-10T20:49:39.928Z,12.13
2018-01-10T20:50:20.441Z,12.12
2018-01-10T20:51:00.991Z,12.13
2018-01-10T20:51:41.539Z,12.17
2018-01-10T20:52:22.801Z,12.17
2018-01-10T20:53:03.488Z,12.02
2018-01-10T20:53:44.357Z,12.12
2018-01-10T20:54:25.639Z,12.17
2018-01-10T20:55:06.767Z,12.27
2018-01-10T20:55:47.695Z,12.23
2018-01-10T20:56:28.258Z,12.29
2018-01-10T20:57:09.238Z,12.37
2018-01-10T20:57:49.726Z,12.41
2018-01-10T20:58:30.263Z,12.38
2018-01-10T20:59:10.852Z,12.39
2018-01-10T20:59:51.524Z,12.39
2018-01-10T21:00:32.054Z,12.5
2018-01-10T21:01:12.625Z,12.35
2018-01-10T21:01:53.227Z,12.38
2018-01-10T21:03:08.881Z,12.16
2018-01-10T21:03:49.434Z,12.17
2018-01-10T21:04:29.988Z,12.17
2018-01-10T21:05:10.523Z,12.17
2018-01-10T21:05:51.087Z,12.28
2018-01-10T21:06:31.749Z,12.28
2018-01-10T21:07:12.327Z,12.24
2018-01-10T21:07:52.880Z,12.35
2018-01-10T21:08:33.402Z,12.23
2018-01-10T21:09:14.020Z,12.28
2018-01-10T21:09:54.506Z,12.31
2018-01-10T21:10:35.113Z,12.27
2018-01-10T21:11:15.606Z,12.27
2018-01-10T21:11:56.121Z,12.23
2018-01-10T21:12:36.661Z,12.21
2018-01-10T21:13:17.255Z,12.27
2018-01-10T21:13:57.791Z,12.16
2018-01-10T21:14:38.457Z,12.12
2018-01-10T21:15:18.989Z,12.1
2018-01-10T21:15:59.557Z,12.1
2018-01-10T21:16:40.132Z,12.13
2018-01-10T21:17:20.657Z,12.14
2018-01-10T21:18:01.220Z,12.13
2018-01-10T21:18:41.795Z,12.16
2018-01-10T21:19:22.327Z,12.13
2018-01-10T21:20:02.882Z,12.04
2018-01-10T21:20:43.464Z,12.13
2018-01-10T21:21:24.124Z,12.07
2018-01-10T21:22:04.665Z,12.07
2018-01-10T21:22:45.219Z,12.13
2018-01-10T21:23:25.790Z,12.09
2018-01-10T21:24:06.324Z,12.13
2018-01-10T21:24:46.904Z,12.04
2018-01-10T21:25:27.585Z,11.94
2018-01-10T21:26:08.145Z,11.96
2018-01-10T21:26:48.675Z,11.99
2018-01-10T21:27:29.234Z,11.96
2018-01-10T21:28:09.834Z,12.04
2018-01-10T21:28:50.337Z,11.88
2018-01-10T21:29:30.884Z,11.9
2018-01-10T21:30:11.458Z,11.9
2018-01-10T21:30:52.120Z,11.76
2018-01-10T21:31:32.885Z,11.85
2018-01-10T21:32:13.399Z,11.88
2018-01-10T21:32:54.016Z,11.88
2018-01-10T21:33:34.713Z,11.82
2018-01-10T21:34:15.162Z,11.82
2018-01-10T21:34:55.721Z,11.95
2018-01-10T21:35:36.258Z,11.96
2018-01-10T21:36:16.800Z,11.96
2018-01-10T21:36:57.457Z,11.86
2018-01-10T21:37:38.231Z,11.78
2018-01-10T21:38:18.878Z,11.91
2018-01-10T21:38:59.435Z,11.98
2018-01-10T21:39:39.928Z,11.98
2018-01-10T21:40:20.512Z,11.91
2018-01-10T21:41:01.069Z,11.82
2018-01-10T21:41:41.607Z,11.79